MMUN

Cancún International Airport

Cancún, Mexico
TAF MMUN 181701Z 1818/1924 08012KT P6SM SCT015 TX31/1818Z TN24/1910Z FM190300 10008KT P6SM SCT015 TEMPO 1910/1914 BKN015 FM191600 12012KT P6SM SCT018 TEMPO 1918/1922 BKN018
Issued Valid From Valid To
Jul-18 @ 17:01 UTC
(5 hours ago)
Jul-18 @ 18:00 UTC
(4 hours ago)
Jul-20 @ 00:00 UTC
(-1 days ago)
Jul-18 @ 18:00 to Jul-19 @ 03:00
TAF MMUN 181701Z 1818/1924 08012KT P6SM SCT015 TX31/1818Z TN24/1910Z
Wind Visibility Clouds
80° at 12 knots Greater than 6 miles
  • Scattered at 1,500' AGL
From Jul-19 @ 03:00 to Jul-19 @ 16:00
FM190300 10008KT P6SM SCT015
Wind Visibility Clouds
100° at 8 knots Greater than 6 miles
  • Scattered at 1,500' AGL
Temporary Jul-19 @ 10:00 to Jul-19 @ 14:00
TEMPO 1910/1914 BKN015
Clouds
  • Broken at 1,500' AGL
From Jul-19 @ 16:00 to Jul-20 @ 00:00
FM191600 12012KT P6SM SCT018
Wind Visibility Clouds
120° at 12 knots Greater than 6 miles
  • Scattered at 1,800' AGL
Temporary Jul-19 @ 18:00 to Jul-19 @ 22:00
TEMPO 1918/1922 BKN018
Clouds
  • Broken at 1,800' AGL
TAF MMUN 181701Z 1818/1924 08012KT P6SM SCT015 TX31/1818Z TN24/1910Z FM190300 10008KT P6SM SCT015 TEMPO 1910/1914 BKN015 FM191600 12012KT P6SM SCT018 TEMPO 1918/1922 BKN018
Issued Jul-18 @ 17:01 UTC
(5 hours ago)
Valid From Jul-18 @ 18:00 UTC
(4 hours ago)
Valid To Jul-20 @ 00:00 UTC
(-1 days ago)
Jul-18 @ 18:00 - Jul-19 @ 03:00
Wind Visibility
80° at 12 knots Greater than 6 miles
Clouds
  • Scattered at 1,500' AGL
From Jul-19 @ 03:00 - Jul-19 @ 16:00
Wind Visibility
100° at 8 knots Greater than 6 miles
Clouds
  • Scattered at 1,500' AGL
Temporary Jul-19 @ 10:00 - Jul-19 @ 14:00
Clouds
  • Broken at 1,500' AGL
From Jul-19 @ 16:00 - Jul-20 @ 00:00
Wind Visibility
120° at 12 knots Greater than 6 miles
Clouds
  • Scattered at 1,800' AGL
Temporary Jul-19 @ 18:00 - Jul-19 @ 22:00
Clouds
  • Broken at 1,800' AGL